Time;durP1;ratioP1;P1;durP2;ratioP2;P2;SDS_P1;SDS_P2;PMS_P1;PMS_P2;Temp;Humidity;BMP_temperature;BMP_pressure;BME280_temperature;BME280_humidity;BME280_pressure;Samples;Min_cycle;Max_cycle;Signal;HPM_P1;HPM_P2
2022/09/29 00:00:28;;;;;;;2.60;1.65;;;13.00;94.40;;;;;;10247657;28;20387;-62
2022/09/29 00:05:29;;;;;;;2.53;1.90;;;13.00;94.40;;;;;;10234908;28;20027;-62
2022/09/29 00:10:30;;;;;;;2.10;1.40;;;13.00;94.30;;;;;;10247016;28;20060;-61
2022/09/29 00:15:31;;;;;;;3.45;1.77;;;12.90;94.30;;;;;;10248872;28;20088;-62
2022/09/29 00:20:31;;;;;;;2.53;1.70;;;12.90;94.30;;;;;;10246585;28;20514;-61
2022/09/29 00:25:32;;;;;;;1.98;1.60;;;12.90;94.30;;;;;;10243658;28;20027;-62
2022/09/29 00:30:33;;;;;;;3.67;1.88;;;12.90;94.30;;;;;;10253168;28;20038;-62
2022/09/29 00:35:33;;;;;;;3.45;1.77;;;12.80;94.20;;;;;;10257372;28;20573;-62
2022/09/29 00:40:34;;;;;;;2.20;1.67;;;12.80;94.20;;;;;;10249067;28;20034;-61
2022/09/29 00:45:36;;;;;;;2.17;1.73;;;12.80;94.20;;;;;;10251415;28;20023;-62
2022/09/29 00:50:45;;;;;;;4.25;1.95;;;12.80;94.20;;;;;;10251240;28;20473;-62
2022/09/29 00:55:58;;;;;;;1.90;1.50;;;12.80;94.20;;;;;;10250584;28;20631;-62
2022/09/29 01:00:59;;;;;;;2.72;1.98;;;12.80;94.10;;;;;;10239097;28;20027;-62
2022/09/29 01:06:12;;;;;;;2.50;1.70;;;12.70;94.10;;;;;;10254032;28;20180;-61
2022/09/29 01:11:14;;;;;;;2.00;1.80;;;12.80;94.10;;;;;;10253126;28;20032;-61
2022/09/29 01:16:15;;;;;;;1.98;1.60;;;12.70;94.10;;;;;;10245388;28;20035;-61
2022/09/29 01:21:40;;;;;;;2.42;1.90;;;12.70;94.10;;;;;;10249730;28;20374;-61
2022/09/29 01:26:44;;;;;;;2.03;1.50;;;12.60;94.00;;;;;;10253549;28;20031;-62
2022/09/29 01:32:03;;;;;;;1.52;1.40;;;12.60;94.00;;;;;;10253329;28;20058;-62
2022/09/29 01:37:07;;;;;;;3.45;1.73;;;12.60;94.00;;;;;;10250396;28;20035;-62
2022/09/29 01:42:19;;;;;;;2.17;1.45;;;12.90;94.10;;;;;;10247764;28;20027;-61
2022/09/29 01:47:40;;;;;;;2.10;1.80;;;12.50;94.00;;;;;;10227490;28;20292;-61
2022/09/29 01:52:45;;;;;;;2.13;1.52;;;12.60;93.90;;;;;;10246053;28;20019;-62
2022/09/29 01:58:03;;;;;;;2.20;1.73;;;12.60;93.90;;;;;;10243779;28;20063;-61
2022/09/29 02:03:18;;;;;;;2.28;1.67;;;12.50;93.90;;;;;;10241679;28;20023;-62
2022/09/29 02:08:36;;;;;;;1.60;1.30;;;12.50;93.90;;;;;;10248204;28;20039;-62
2022/09/29 02:13:58;;;;;;;2.30;1.65;;;12.50;93.80;;;;;;10251644;28;20015;-62
2022/09/29 02:19:40;;;;;;;3.00;1.75;;;12.50;93.80;;;;;;10241064;28;20059;-61
2022/09/29 02:24:41;;;;;;;1.92;1.45;;;12.50;93.80;;;;;;10086636;29;20528;-62
2022/09/29 02:29:43;;;;;;;1.92;1.73;;;12.50;93.80;;;;;;10192946;28;20423;-62
2022/09/29 02:34:49;;;;;;;2.30;1.88;;;12.40;93.80;;;;;;10251394;28;20100;-62
2022/09/29 02:40:09;;;;;;;2.78;1.92;;;12.40;93.70;;;;;;10249425;28;20026;-62
2022/09/29 02:45:25;;;;;;;3.30;1.70;;;12.40;93.70;;;;;;10246667;28;20439;-62
2022/09/29 02:50:30;;;;;;;2.33;1.80;;;12.40;93.70;;;;;;10251524;28;20419;-61
2022/09/29 02:55:36;;;;;;;3.13;1.90;;;12.30;93.60;;;;;;10244892;28;20067;-62
2022/09/29 03:00:38;;;;;;;2.28;1.80;;;12.30;93.60;;;;;;10241055;28;20032;-62
2022/09/29 03:05:39;;;;;;;2.60;1.75;;;12.30;93.60;;;;;;10240207;28;20035;-62
2022/09/29 03:10:39;;;;;;;2.50;1.75;;;12.30;93.60;;;;;;10242700;28;20035;-61
2022/09/29 03:15:40;;;;;;;2.58;1.80;;;12.30;93.60;;;;;;10240314;28;20035;-62
2022/09/29 03:20:41;;;;;;;2.45;2.03;;;12.20;93.50;;;;;;10245755;28;20137;-62
2022/09/29 03:25:42;;;;;;;2.67;2.10;;;12.20;93.50;;;;;;10245740;28;20557;-62
2022/09/29 03:30:44;;;;;;;2.70;2.13;;;12.20;93.50;;;;;;10243816;28;20381;-61
2022/09/29 03:35:44;;;;;;;3.55;2.33;;;12.20;93.50;;;;;;10245576;28;20130;-62
2022/09/29 03:40:45;;;;;;;3.85;2.20;;;12.20;93.50;;;;;;10251724;28;20031;-62
2022/09/29 03:45:51;;;;;;;2.50;1.95;;;12.20;93.50;;;;;;10236617;28;20066;-61
2022/09/29 03:50:53;;;;;;;2.58;1.70;;;12.20;93.40;;;;;;10234990;28;20015;-61
2022/09/29 03:55:54;;;;;;;2.90;1.88;;;12.10;93.40;;;;;;10243121;28;20889;-61
2022/09/29 04:00:55;;;;;;;3.20;1.70;;;12.10;93.40;;;;;;10247268;28;20038;-63
2022/09/29 04:05:56;;;;;;;3.40;1.60;;;12.10;93.40;;;;;;10243350;28;20105;-61
2022/09/29 04:10:57;;;;;;;2.08;1.42;;;12.10;93.40;;;;;;10250781;28;20097;-62
2022/09/29 04:16:03;;;;;;;2.53;1.80;;;12.10;93.40;;;;;;10246903;28;20043;-62
2022/09/29 04:21:07;;;;;;;3.00;1.75;;;12.10;93.40;;;;;;10253226;28;20059;-63
2022/09/29 04:26:08;;;;;;;2.00;1.60;;;12.10;93.30;;;;;;10248383;28;20066;-61
2022/09/29 04:31:09;;;;;;;1.92;1.70;;;12.00;93.30;;;;;;10247380;28;20106;-62
2022/09/29 04:36:10;;;;;;;2.05;1.65;;;12.00;93.50;;;;;;10246763;28;20043;-63
2022/09/29 04:41:10;;;;;;;1.70;1.50;;;12.00;93.30;;;;;;10248488;28;20145;-62
2022/09/29 04:46:13;;;;;;;4.40;1.50;;;12.00;93.30;;;;;;10249905;28;20858;-61
2022/09/29 04:51:13;;;;;;;2.08;1.50;;;12.00;93.20;;;;;;10248898;28;20065;-61
2022/09/29 04:56:14;;;;;;;1.30;1.10;;;12.00;93.20;;;;;;10239616;28;20043;-64
2022/09/29 05:01:15;;;;;;;2.20;1.40;;;11.90;93.20;;;;;;10249420;28;20031;-70
2022/09/29 05:06:16;;;;;;;2.00;1.50;;;11.90;93.10;;;;;;10252737;28;20035;-62
2022/09/29 05:11:16;;;;;;;4.50;1.73;;;11.90;93.10;;;;;;10250991;28;20035;-61
2022/09/29 05:16:17;;;;;;;2.05;1.45;;;11.90;93.10;;;;;;10249219;28;20043;-63
2022/09/29 05:21:18;;;;;;;2.00;1.60;;;11.90;93.10;;;;;;10251902;28;20047;-65
2022/09/29 05:26:19;;;;;;;1.80;1.30;;;11.80;93.00;;;;;;10254499;28;20035;-61
2022/09/29 05:31:19;;;;;;;1.80;1.52;;;11.80;93.00;;;;;;10245203;28;20055;-62
2022/09/29 05:36:20;;;;;;;1.45;1.27;;;11.80;93.00;;;;;;10249404;28;20039;-61
2022/09/29 05:41:22;;;;;;;1.77;1.40;;;11.80;93.00;;;;;;10252561;28;20502;-62
2022/09/29 05:46:22;;;;;;;2.25;1.75;;;11.80;93.00;;;;;;10251022;28;20126;-62
2022/09/29 05:51:25;;;;;;;2.42;1.67;;;11.80;92.90;;;;;;10244046;28;20392;-70
2022/09/29 05:56:29;;;;;;;1.90;1.58;;;11.70;92.90;;;;;;10235261;28;20036;-62
2022/09/29 06:01:31;;;;;;;2.22;1.60;;;11.70;92.90;;;;;;10163273;28;20129;-63
2022/09/29 06:06:35;;;;;;;1.77;1.55;;;11.70;92.80;;;;;;10168684;28;20031;-62
2022/09/29 06:11:35;;;;;;;2.38;1.50;;;11.70;92.80;;;;;;10171144;28;20023;-65
2022/09/29 06:16:36;;;;;;;1.52;1.40;;;11.70;92.80;;;;;;10166282;28;20072;-66
2022/09/29 06:21:38;;;;;;;1.95;1.40;;;11.70;92.70;;;;;;10164617;28;20048;-61
2022/09/29 06:26:39;;;;;;;2.15;1.58;;;11.60;92.70;;;;;;10163634;28;20835;-63
2022/09/29 06:31:40;;;;;;;1.95;1.48;;;11.60;92.90;;;;;;10139289;28;20134;-62
2022/09/29 06:42:02;;;;;;;2.47;1.63;;;11.60;92.60;;;;;;10167010;28;20090;-66
2022/09/29 06:47:03;;;;;;;1.42;1.25;;;11.60;92.50;;;;;;10167911;28;20031;-61
2022/09/29 06:52:04;;;;;;;3.45;1.40;;;11.60;92.50;;;;;;10159220;28;20034;-62
2022/09/29 06:57:05;;;;;;;3.35;1.45;;;11.60;92.50;;;;;;10153701;28;20588;-61
2022/09/29 07:02:05;;;;;;;1.85;1.50;;;11.60;92.50;;;;;;10167899;28;20031;-62
2022/09/29 07:07:06;;;;;;;2.63;1.60;;;11.60;92.40;;;;;;10147995;28;20643;-70
2022/09/29 07:12:07;;;;;;;1.48;1.35;;;11.60;92.40;;;;;;10180764;28;20031;-62
2022/09/29 07:17:08;;;;;;;1.90;1.10;;;11.60;92.40;;;;;;10170372;28;20039;-62
2022/09/29 07:22:09;;;;;;;1.63;1.40;;;11.60;92.30;;;;;;10132131;28;20078;-62
2022/09/29 07:27:10;;;;;;;1.40;1.30;;;11.70;92.30;;;;;;10155635;28;20041;-61
2022/09/29 07:32:10;;;;;;;2.80;1.80;;;11.70;92.30;;;;;;10162484;28;20034;-62
2022/09/29 07:37:11;;;;;;;1.88;1.50;;;11.70;92.30;;;;;;10167028;28;20048;-62
2022/09/29 07:42:12;;;;;;;2.42;1.60;;;11.80;92.30;;;;;;10166877;28;20150;-62
2022/09/29 07:47:13;;;;;;;3.97;1.50;;;11.90;92.20;;;;;;10160547;28;20106;-62
2022/09/29 07:52:14;;;;;;;1.65;1.52;;;12.10;92.20;;;;;;10176236;23;20054;-61
2022/09/29 07:57:15;;;;;;;1.63;1.40;;;12.20;92.10;;;;;;10161215;28;20046;-62
2022/09/29 08:02:16;;;;;;;2.25;1.63;;;12.30;92.00;;;;;;10159467;28;20129;-64
2022/09/29 08:07:17;;;;;;;2.35;1.90;;;12.30;92.00;;;;;;10172498;28;20031;-67
2022/09/29 08:12:20;;;;;;;2.13;1.80;;;12.40;92.00;;;;;;10180950;28;20077;-62
2022/09/29 08:17:21;;;;;;;2.45;1.88;;;12.40;92.00;;;;;;10162007;28;20047;-62
2022/09/29 08:22:22;;;;;;;2.83;1.83;;;12.60;92.10;;;;;;10191873;28;20038;-61
2022/09/29 08:27:22;;;;;;;2.28;1.70;;;12.50;92.10;;;;;;10160290;28;20258;-62
2022/09/29 08:32:24;;;;;;;2.47;1.98;;;12.50;92.10;;;;;;10161134;28;20312;-70
2022/09/29 08:37:26;;;;;;;2.85;2.20;;;12.60;92.20;;;;;;10161120;28;20046;-66
2022/09/29 08:42:48;;;;;;;4.13;1.88;;;12.60;92.20;;;;;;10177067;28;20478;-63
2022/09/29 08:47:50;;;;;;;7.78;1.98;;;12.60;92.20;;;;;;10177250;28;20038;-62
2022/09/29 08:52:56;;;;;;;2.28;1.70;;;13.00;92.30;;;;;;10169719;28;20121;-62
2022/09/29 08:57:59;;;;;;;3.17;1.98;;;12.70;92.50;;;;;;10166820;28;20050;-61
2022/09/29 09:03:24;;;;;;;2.15;1.67;;;12.70;92.50;;;;;;10168313;28;20998;-62
2022/09/29 09:08:42;;;;;;;3.03;1.75;;;12.70;92.30;;;;;;10173350;28;20051;-62
2022/09/29 09:13:48;;;;;;;4.17;1.90;;;12.80;92.30;;;;;;10169810;28;20336;-62
2022/09/29 09:18:56;;;;;;;3.45;2.03;;;12.80;92.30;;;;;;10160279;28;20051;-62
2022/09/29 09:24:10;;;;;;;3.33;2.00;;;12.80;92.30;;;;;;10156344;28;20019;-62
2022/09/29 09:29:33;;;;;;;2.45;1.80;;;12.90;92.40;;;;;;10157777;28;20030;-62
2022/09/29 09:34:45;;;;;;;3.05;2.30;;;12.90;92.50;;;;;;10158069;28;20217;-61
2022/09/29 09:40:54;;;;;;;2.50;1.85;;;13.00;92.50;;;;;;10155909;28;20031;-62
2022/09/29 09:46:26;;;;;;;3.38;2.15;;;13.10;92.60;;;;;;9924198;29;20217;-70
2022/09/29 09:51:44;;;;;;;2.92;2.22;;;13.10;92.50;;;;;;10126848;28;20053;-62
2022/09/29 09:57:09;;;;;;;3.38;2.08;;;13.20;92.50;;;;;;10160410;28;20231;-64
2022/09/29 10:02:21;;;;;;;3.10;1.90;;;13.30;92.40;;;;;;10146614;28;20062;-62
2022/09/29 10:07:24;;;;;;;3.05;1.98;;;13.30;92.40;;;;;;10164229;28;20058;-63
2022/09/29 10:12:25;;;;;;;1.75;1.63;;;13.40;92.30;;;;;;10162666;28;20782;-62
2022/09/29 10:17:32;;;;;;;2.42;1.60;;;13.40;92.30;;;;;;10139298;28;20051;-61
2022/09/29 10:22:34;;;;;;;2.83;1.90;;;13.50;92.40;;;;;;10155674;28;20969;-62
2022/09/29 10:27:39;;;;;;;2.17;1.70;;;13.50;92.30;;;;;;10154738;28;20258;-62
2022/09/29 10:32:43;;;;;;;2.08;1.60;;;13.60;92.40;;;;;;10142252;28;20027;-66
2022/09/29 10:38:01;;;;;;;3.22;1.90;;;13.70;92.40;;;;;;10152617;28;20560;-70
2022/09/29 10:43:23;;;;;;;3.72;1.90;;;13.70;92.40;;;;;;10151540;28;20039;-62
2022/09/29 10:48:25;;;;;;;1.70;1.40;;;13.70;92.40;;;;;;10146033;28;20143;-71
2022/09/29 10:53:40;;;;;;;2.03;1.70;;;13.80;92.30;;;;;;10152984;28;20938;-64
2022/09/29 10:58:44;;;;;;;2.42;1.30;;;13.80;92.30;;;;;;10141316;28;20146;-62
2022/09/29 11:04:02;;;;;;;3.53;1.50;;;13.80;92.30;;;;;;10154592;28;20478;-64
2022/09/29 11:09:04;;;;;;;3.17;1.65;;;13.90;92.40;;;;;;10155199;28;20924;-63
2022/09/29 11:14:08;;;;;;;2.20;1.60;;;13.90;92.30;;;;;;10152931;28;20038;-63
2022/09/29 11:19:12;;;;;;;1.95;1.50;;;13.90;92.30;;;;;;10156524;28;20047;-62
2022/09/29 11:24:58;;;;;;;2.00;1.40;;;14.70;92.50;;;;;;10153953;28;20019;-62
2022/09/29 11:30:16;;;;;;;2.20;1.55;;;14.00;92.30;;;;;;10153663;28;20138;-62
2022/09/29 11:35:23;;;;;;;1.83;1.20;;;14.10;92.30;;;;;;10136070;28;20042;-61
2022/09/29 11:40:46;;;;;;;2.00;1.50;;;14.10;92.20;;;;;;10155206;28;20226;-62
2022/09/29 11:45:58;;;;;;;1.98;1.35;;;14.20;92.30;;;;;;10161792;28;20949;-69
2022/09/29 11:51:28;;;;;;;2.20;1.33;;;14.20;92.20;;;;;;10170843;28;20162;-62
2022/09/29 11:56:43;;;;;;;1.73;1.50;;;14.20;92.30;;;;;;10166663;28;21134;-67
2022/09/29 12:01:53;;;;;;;1.48;1.33;;;14.30;92.30;;;;;;10158551;28;20062;-63
2022/09/29 12:06:56;;;;;;;1.60;1.25;;;14.30;92.30;;;;;;10167507;28;20031;-62
2022/09/29 12:12:41;;;;;;;1.58;1.30;;;14.40;92.20;;;;;;10165853;28;20181;-70
2022/09/29 12:17:46;;;;;;;2.00;1.38;;;14.40;92.20;;;;;;10187091;28;20059;-62
2022/09/29 12:22:50;;;;;;;2.58;1.60;;;14.50;92.20;;;;;;10168356;28;20019;-63
2022/09/29 12:27:57;;;;;;;1.90;1.48;;;14.50;92.20;;;;;;10174258;28;20211;-62
2022/09/29 12:33:19;;;;;;;2.30;1.23;;;14.50;92.20;;;;;;10172233;28;20477;-62
2022/09/29 12:38:44;;;;;;;1.63;1.10;;;14.60;92.10;;;;;;10169063;28;20877;-62
2022/09/29 12:43:58;;;;;;;2.10;1.33;;;14.60;92.10;;;;;;10183414;28;20122;-62
2022/09/29 12:49:32;;;;;;;1.17;0.95;;;14.70;92.10;;;;;;10173572;28;20035;-62
2022/09/29 12:54:39;;;;;;;1.38;1.17;;;14.70;92.10;;;;;;10162587;28;20437;-62
2022/09/29 13:00:01;;;;;;;2.25;1.08;;;14.80;92.10;;;;;;10167282;28;20070;-62
2022/09/29 13:05:24;;;;;;;1.40;1.10;;;14.80;92.10;;;;;;10159631;28;20137;-62
2022/09/29 13:10:34;;;;;;;1.67;1.15;;;14.80;92.20;;;;;;10187309;28;20042;-62
2022/09/29 13:15:52;;;;;;;1.83;1.20;;;14.90;92.20;;;;;;10166571;28;20559;-65
2022/09/29 13:20:56;;;;;;;1.08;0.90;;;14.90;92.30;;;;;;10167621;28;20031;-62
2022/09/29 13:26:09;;;;;;;2.38;1.00;;;14.90;92.30;;;;;;10162290;28;20034;-62
2022/09/29 13:31:19;;;;;;;1.65;1.15;;;14.90;92.30;;;;;;10170350;28;20142;-64
2022/09/29 13:36:27;;;;;;;1.38;1.10;;;15.00;92.30;;;;;;10176838;28;20027;-62
2022/09/29 13:41:28;;;;;;;1.75;0.98;;;15.10;92.30;;;;;;10172458;28;20691;-63
2022/09/29 13:46:29;;;;;;;1.73;1.15;;;15.10;92.30;;;;;;10173481;28;20130;-62
2022/09/29 13:51:55;;;;;;;1.75;1.10;;;15.20;92.30;;;;;;10177481;28;20052;-62
2022/09/29 13:57:11;;;;;;;1.70;1.30;;;15.30;92.40;;;;;;10160358;28;20065;-62
2022/09/29 14:02:33;;;;;;;1.35;1.20;;;15.30;92.30;;;;;;10164703;28;20028;-62
2022/09/29 14:07:42;;;;;;;2.40;1.13;;;15.40;92.20;;;;;;10174299;28;20562;-62
2022/09/29 14:12:46;;;;;;;1.48;1.00;;;15.50;92.20;;;;;;10170460;28;20665;-62
2022/09/29 14:17:57;;;;;;;1.67;1.05;;;15.50;92.20;;;;;;10164931;28;20066;-62
2022/09/29 14:23:01;;;;;;;1.48;1.13;;;15.40;92.10;;;;;;10172645;28;20019;-63
2022/09/29 14:28:08;;;;;;;1.10;0.80;;;15.60;92.20;;;;;;10165136;28;20054;-62
2022/09/29 14:33:12;;;;;;;1.42;1.00;;;15.70;92.10;;;;;;10149943;28;20438;-62
2022/09/29 14:38:27;;;;;;;1.20;0.90;;;15.90;92.00;;;;;;10212982;23;20057;-62
2022/09/29 14:43:54;;;;;;;1.10;1.00;;;16.00;92.00;;;;;;10168234;28;20042;-62
2022/09/29 14:54:42;;;;;;;1.30;1.10;;;16.20;91.80;;;;;;10165418;28;20027;-61
2022/09/29 15:00:14;;;;;;;0.80;0.73;;;16.30;91.80;;;;;;10165609;28;21039;-61
2022/09/29 15:05:32;;;;;;;1.23;0.80;;;16.40;91.80;;;;;;10169699;28;20038;-62
2022/09/29 15:10:39;;;;;;;0.98;0.88;;;16.30;92.00;;;;;;10174165;28;20058;-62
2022/09/29 15:15:45;;;;;;;1.23;0.90;;;16.30;92.00;;;;;;10165755;28;20101;-63
2022/09/29 15:21:02;;;;;;;1.08;0.93;;;16.20;92.10;;;;;;10162589;28;20023;-62
2022/09/29 15:26:03;;;;;;;1.00;0.90;;;16.10;92.30;;;;;;10156633;28;20535;-62
2022/09/29 15:32:08;;;;;;;0.90;0.77;;;16.10;92.30;;;;;;10162669;28;20039;-62
2022/09/29 15:36:55;;;;;;;3.00;1.08;;;16.20;92.50;;;;;;10140519;28;20379;-62
2022/09/29 15:42:18;;;;;;;0.82;0.70;;;15.90;92.40;;;;;;10160237;28;20184;-62
2022/09/29 15:47:21;;;;;;;1.15;0.88;;;15.90;92.50;;;;;;10163684;28;20175;-62
2022/09/29 15:52:22;;;;;;;1.38;0.93;;;15.90;92.50;;;;;;10152972;28;20367;-62
2022/09/29 15:57:42;;;;;;;1.15;0.90;;;15.80;92.50;;;;;;10161713;28;20102;-63
2022/09/29 16:02:42;;;;;;;1.00;0.73;;;15.80;92.60;;;;;;10141755;28;20469;-62
2022/09/29 16:07:57;;;;;;;0.85;0.70;;;15.80;92.60;;;;;;10154613;28;20583;-62
2022/09/29 16:13:07;;;;;;;2.88;0.80;;;15.80;92.70;;;;;;10132201;28;20034;-63
2022/09/29 16:18:20;;;;;;;2.42;0.90;;;15.70;92.70;;;;;;10150996;28;20039;-61
2022/09/29 16:23:24;;;;;;;0.80;0.75;;;15.70;92.70;;;;;;10154888;28;20047;-63
2022/09/29 16:28:28;;;;;;;0.80;0.70;;;15.70;92.70;;;;;;10153774;28;20043;-63
2022/09/29 16:33:31;;;;;;;1.92;0.82;;;15.70;92.70;;;;;;10154780;28;20799;-62
2022/09/29 16:38:39;;;;;;;1.48;0.85;;;15.60;92.80;;;;;;10149335;28;20454;-62
2022/09/29 16:43:43;;;;;;;1.10;0.60;;;15.60;92.80;;;;;;10155385;28;20031;-62
2022/09/29 16:48:47;;;;;;;0.70;0.70;;;15.60;92.90;;;;;;10157951;28;20282;-61
2022/09/29 16:53:50;;;;;;;0.80;0.80;;;15.60;93.00;;;;;;10153455;28;20126;-65
2022/09/29 16:59:16;;;;;;;0.80;0.63;;;15.50;93.10;;;;;;10154326;28;20059;-62
2022/09/29 17:04:17;;;;;;;1.30;0.90;;;15.50;93.10;;;;;;10144012;28;20023;-65
2022/09/29 17:09:21;;;;;;;0.70;0.70;;;15.40;93.50;;;;;;10163554;28;20862;-62
2022/09/29 17:14:23;;;;;;;0.70;0.50;;;15.40;93.30;;;;;;10163554;28;20102;-62
2022/09/29 17:19:25;;;;;;;1.20;0.60;;;15.40;93.40;;;;;;10170995;23;20548;-63
2022/09/29 17:24:28;;;;;;;1.05;0.68;;;15.30;93.40;;;;;;10126183;29;20589;-61
2022/09/29 17:29:30;;;;;;;0.70;0.52;;;15.30;93.50;;;;;;10120938;29;20067;-62
2022/09/29 17:34:31;;;;;;;0.65;0.60;;;15.30;93.60;;;;;;10106023;29;20031;-65
2022/09/29 17:39:32;;;;;;;0.57;0.50;;;15.20;93.60;;;;;;10118924;29;20201;-62
2022/09/29 17:44:33;;;;;;;2.08;0.52;;;15.20;93.70;;;;;;10116427;29;20035;-63
2022/09/29 17:49:34;;;;;;;1.10;0.60;;;15.20;93.70;;;;;;10186663;29;20107;-62
2022/09/29 17:54:37;;;;;;;0.98;0.60;;;15.10;93.70;;;;;;10200317;29;20039;-62
2022/09/29 17:59:39;;;;;;;1.52;0.60;;;15.20;94.10;;;;;;10196477;29;20119;-65
2022/09/29 18:04:46;;;;;;;0.85;0.60;;;15.10;93.80;;;;;;10200718;29;20031;-61
2022/09/29 18:09:47;;;;;;;1.23;0.80;;;15.10;93.90;;;;;;10194600;29;20036;-62
2022/09/29 18:14:48;;;;;;;1.08;0.90;;;15.10;93.90;;;;;;10196059;29;20032;-62
2022/09/29 18:19:48;;;;;;;1.60;1.40;;;15.00;93.90;;;;;;10196056;29;20047;-62
2022/09/29 18:24:49;;;;;;;2.28;1.50;;;15.00;94.00;;;;;;10198108;29;20081;-61
2022/09/29 18:29:50;;;;;;;1.52;1.30;;;15.00;94.00;;;;;;10191301;29;20027;-61
2022/09/29 18:34:50;;;;;;;2.22;1.67;;;15.00;94.00;;;;;;10196764;29;20043;-62
2022/09/29 18:39:51;;;;;;;2.63;1.60;;;14.90;94.10;;;;;;10193528;29;20099;-61
2022/09/29 18:44:52;;;;;;;3.22;2.00;;;14.90;94.10;;;;;;10199786;29;20023;-62
2022/09/29 18:49:52;;;;;;;2.60;1.55;;;14.90;94.20;;;;;;10198909;29;20031;-62
2022/09/29 18:54:53;;;;;;;3.78;2.30;;;14.90;94.20;;;;;;10195951;29;20501;-62
2022/09/29 18:59:54;;;;;;;3.38;2.15;;;14.90;94.20;;;;;;10193085;29;20031;-62
2022/09/29 19:04:56;;;;;;;4.25;1.70;;;14.80;94.30;;;;;;10179981;29;20059;-62
2022/09/29 19:09:56;;;;;;;3.20;2.50;;;14.80;94.30;;;;;;10197667;29;20024;-62
2022/09/29 19:15:00;;;;;;;3.63;2.22;;;14.80;94.30;;;;;;10196130;29;20393;-62
2022/09/29 19:20:00;;;;;;;5.32;3.10;;;14.80;94.40;;;;;;10186229;29;20059;-62
2022/09/29 19:25:03;;;;;;;4.32;3.00;;;14.70;94.30;;;;;;10192812;29;20504;-62
2022/09/29 19:30:05;;;;;;;5.72;3.15;;;14.70;94.40;;;;;;10191988;29;20032;-62
2022/09/29 19:35:08;;;;;;;5.28;3.17;;;14.70;94.40;;;;;;10193117;29;20047;-61
2022/09/29 19:40:12;;;;;;;5.28;3.25;;;14.70;94.40;;;;;;10206061;29;20027;-62
2022/09/29 19:45:13;;;;;;;5.47;3.45;;;14.70;94.50;;;;;;10205578;29;20618;-61
2022/09/29 19:55:38;;;;;;;3.95;3.08;;;14.70;94.50;;;;;;10204012;29;21966;-62
2022/09/29 20:00:39;;;;;;;6.80;3.38;;;14.60;94.50;;;;;;10198489;29;20027;-62
2022/09/29 20:05:40;;;;;;;5.60;3.70;;;14.60;94.50;;;;;;10207574;29;20057;-61
2022/09/29 20:10:41;;;;;;;4.60;3.50;;;14.60;94.60;;;;;;10202717;29;20142;-62
2022/09/29 20:15:45;;;;;;;5.85;3.75;;;14.60;94.60;;;;;;10204033;29;20240;-62
2022/09/29 20:20:50;;;;;;;4.90;3.58;;;14.60;94.70;;;;;;10199927;29;20046;-62
2022/09/29 20:26:01;;;;;;;6.53;3.75;;;14.50;94.70;;;;;;10197302;29;20047;-62
2022/09/29 20:31:03;;;;;;;4.75;3.45;;;14.50;94.70;;;;;;10202393;29;20480;-62
2022/09/29 20:36:05;;;;;;;4.80;3.55;;;14.50;94.70;;;;;;10213502;29;20382;-63
2022/09/29 20:41:06;;;;;;;4.60;3.28;;;14.50;94.70;;;;;;10215834;29;20026;-62
2022/09/29 20:46:07;;;;;;;4.43;3.38;;;14.50;94.80;;;;;;10208485;29;20122;-62
2022/09/29 20:51:13;;;;;;;4.57;3.65;;;14.50;94.80;;;;;;10209403;29;20023;-62
2022/09/29 20:56:15;;;;;;;3.97;3.35;;;14.50;94.80;;;;;;10206794;29;20412;-62
2022/09/29 21:01:19;;;;;;;5.05;3.28;;;14.40;94.80;;;;;;10197536;29;20047;-62
2022/09/29 21:06:23;;;;;;;4.30;3.30;;;14.40;94.80;;;;;;10198280;29;20099;-62
2022/09/29 21:11:24;;;;;;;3.88;3.05;;;14.40;94.90;;;;;;10196887;29;20398;-63
2022/09/29 21:16:25;;;;;;;6.03;3.25;;;14.40;94.90;;;;;;10194108;29;20032;-61
2022/09/29 21:21:26;;;;;;;3.58;3.00;;;14.40;94.90;;;;;;10200351;29;20040;-61
2022/09/29 21:26:27;;;;;;;4.75;3.00;;;14.40;94.90;;;;;;10199097;29;20067;-62
2022/09/29 21:31:32;;;;;;;4.78;3.20;;;14.40;94.90;;;;;;10195719;29;20114;-61
2022/09/29 21:36:35;;;;;;;4.60;3.35;;;14.30;95.00;;;;;;10197652;29;20047;-61
2022/09/29 21:41:37;;;;;;;4.43;2.92;;;14.30;95.00;;;;;;10185142;29;20055;-61
2022/09/29 21:46:39;;;;;;;4.78;3.25;;;14.30;95.00;;;;;;10198667;29;21054;-62
2022/09/29 21:51:42;;;;;;;4.47;2.92;;;14.30;95.00;;;;;;10197649;29;20638;-61
2022/09/29 21:56:44;;;;;;;5.72;3.45;;;14.30;95.10;;;;;;10195547;29;20083;-61
2022/09/29 22:01:45;;;;;;;4.20;3.00;;;14.30;95.10;;;;;;10197523;29;20066;-62
2022/09/29 22:06:46;;;;;;;5.40;3.08;;;14.30;95.10;;;;;;10196970;29;20503;-61
2022/09/29 22:11:49;;;;;;;4.72;3.40;;;14.20;95.10;;;;;;10195543;29;20032;-62
2022/09/29 22:16:49;;;;;;;5.70;3.47;;;14.20;95.10;;;;;;10183027;29;20047;-61
2022/09/29 22:21:52;;;;;;;4.70;3.25;;;14.20;95.10;;;;;;10197222;29;20609;-62
2022/09/29 22:26:53;;;;;;;4.32;3.05;;;14.20;95.10;;;;;;10193049;29;20036;-67
2022/09/29 22:31:54;;;;;;;5.82;3.58;;;14.20;95.10;;;;;;10192742;29;20103;-61
2022/09/29 22:36:55;;;;;;;5.00;3.70;;;14.20;95.10;;;;;;10198254;29;20357;-61
2022/09/29 22:41:57;;;;;;;3.53;2.85;;;14.10;95.10;;;;;;10197923;29;20504;-62
2022/09/29 22:46:58;;;;;;;4.20;2.80;;;14.10;95.10;;;;;;10198158;29;20024;-62
2022/09/29 22:51:59;;;;;;;5.03;3.22;;;14.10;95.10;;;;;;10194200;29;20046;-61
2022/09/29 22:57:00;;;;;;;4.40;3.03;;;14.10;95.10;;;;;;10194362;29;20401;-62
2022/09/29 23:02:01;;;;;;;5.18;3.17;;;14.10;95.10;;;;;;10196328;29;20119;-62
2022/09/29 23:07:01;;;;;;;4.50;3.38;;;14.10;95.10;;;;;;10198631;29;20031;-62
2022/09/29 23:12:02;;;;;;;5.00;3.08;;;14.10;95.10;;;;;;10227665;23;20160;-62
2022/09/29 23:17:03;;;;;;;4.95;3.17;;;14.10;95.10;;;;;;10198642;29;20107;-62
2022/09/29 23:22:04;;;;;;;4.28;3.10;;;14.10;95.10;;;;;;10195110;29;20485;-62
2022/09/29 23:27:04;;;;;;;3.88;2.83;;;14.00;95.10;;;;;;10197554;29;20031;-63
2022/09/29 23:32:05;;;;;;;3.40;2.50;;;14.00;95.10;;;;;;10194353;29;20441;-62
2022/09/29 23:37:06;;;;;;;3.80;2.63;;;14.00;95.10;;;;;;10192968;29;20054;-62
2022/09/29 23:42:08;;;;;;;3.70;2.63;;;14.00;95.10;;;;;;10196177;29;20038;-62
2022/09/29 23:47:09;;;;;;;4.43;2.60;;;14.00;95.10;;;;;;10193944;29;20680;-62
2022/09/29 23:52:09;;;;;;;3.70;2.85;;;14.00;95.10;;;;;;10194648;29;20127;-62
2022/09/29 23:57:10;;;;;;;3.90;2.65;;;14.00;95.20;;;;;;10191302;29;20063;-68
